Sherman, Texas
Current Conditions -  °F | °C
As of 12:15 PM on Tuesday 21 Oct 2014 (Local Time) from KGYI Reporting Station
Clear Clear  
Wind Chill: 25°   Ceiling: Unl
Heat Index: 26°   Visibility: 10mi
Dew Point: 16°   Wind: 6mph
Humidity: 58%   Direction: 150°SSE
Pressure: 30.12"   Gusts: NA
Location:  33.64°N, 96.61°W
Report Text: KGYI 211715Z AUTO 15005KT 10SM CLR 25/16 A3012 RMK AO2 T02510162
Loading
Personal Weather Stations






























Interactive Weather Map
Tropical Storm Tracking
New forecast layout! Learn more

10-Day Weather Forecast

Advertisements
Track Severe Weather on mobile